Main page
METAR-TAF:

METAR-TAF

Airports :

Hartsfield–Jackson Atlanta International Airport

Atlanta, Georgia, United States

latitude: 33-38-25N, longitude: 084-25-37W, elevation: 313 m

Current weather observation

The report was made 41 minutes ago, at 18:52 UTC
Wind 7 kt from the Northeast
Temperature 34°C
Humidity 36%
Pressure 1016 hPa
Visibility: 16.1 km
Few clouds at a height of 6000 ft

METAR: KATL 191852Z 05007KT 10SM FEW060 34/17 A3001 RMK AO2 SLP148 T03390172

Time: 15:33 (19:33 UTC)

Forecast

The report was made 2 hours and 1 minutes ago, at 17:32 UTC
Forecast valid from 19 at 18 UTC to 20 at 24 UTC
Wind 5 kt from the East/Northeast
Visibility: 10 km
Few clouds at a height of 6000 ft
From 20 at 0100 UTC
Wind 3 kt from the East
Visibility: 10 km
Few clouds at a height of 15000 ft
From 20 at 1700 UTC
Wind 6 kt from the East/Southeast
Visibility: 10 km
Scattered clouds at a height of 6000 ft

TAF: KATL 191732Z 1918/2024 07005KT P6SM FEW060 FM200100 10003KT P6SM FEW150 FM201700 12006KT P6SM SCT060

Weather observations and forecasts of more than 4000 airports (METAR and TAF reports).

The available stations are represented by yellow and red dots on the map.

Hover mouse over dot to see the name of the station.

Then click to see weather observations and forecasts.

To change the map : click on the green buttons with a black cross to zoom in, on the green button with a dash to zoom out, or on the green arrows for adjacent maps.


METAR-TAF: